sensor_id;sensor_type;location;lat;lon;timestamp;P1;durP1;ratioP1;P2;durP2;ratioP2
11185;SDS011;5649;52.422;13.754;2023-02-17T00:00:46;37.23;;;10.97;;
11185;SDS011;5649;52.422;13.754;2023-02-17T00:03:12;30.83;;;11.27;;
11185;SDS011;5649;52.422;13.754;2023-02-17T00:05:38;22.70;;;11.90;;
11185;SDS011;5649;52.422;13.754;2023-02-17T00:08:04;29.70;;;11.80;;
11185;SDS011;5649;52.422;13.754;2023-02-17T00:10:30;26.53;;;12.17;;
11185;SDS011;5649;52.422;13.754;2023-02-17T00:12:56;26.33;;;12.27;;
11185;SDS011;5649;52.422;13.754;2023-02-17T00:15:22;24.47;;;12.00;;
11185;SDS011;5649;52.422;13.754;2023-02-17T00:17:48;26.17;;;11.83;;
11185;SDS011;5649;52.422;13.754;2023-02-17T00:20:14;27.80;;;12.53;;
11185;SDS011;5649;52.422;13.754;2023-02-17T00:22:40;22.10;;;10.20;;
11185;SDS011;5649;52.422;13.754;2023-02-17T00:25:06;28.93;;;10.90;;
11185;SDS011;5649;52.422;13.754;2023-02-17T00:27:32;31.00;;;10.47;;
11185;SDS011;5649;52.422;13.754;2023-02-17T00:29:58;25.83;;;10.27;;
11185;SDS011;5649;52.422;13.754;2023-02-17T00:32:24;16.20;;;9.47;;
11185;SDS011;5649;52.422;13.754;2023-02-17T00:34:51;26.10;;;11.97;;
11185;SDS011;5649;52.422;13.754;2023-02-17T00:37:20;24.40;;;10.53;;
11185;SDS011;5649;52.422;13.754;2023-02-17T00:39:46;23.50;;;11.80;;
11185;SDS011;5649;52.422;13.754;2023-02-17T00:42:12;27.53;;;11.50;;
11185;SDS011;5649;52.422;13.754;2023-02-17T00:44:38;29.10;;;11.47;;
11185;SDS011;5649;52.422;13.754;2023-02-17T00:47:04;17.83;;;10.47;;
11185;SDS011;5649;52.422;13.754;2023-02-17T00:49:30;33.00;;;13.23;;
11185;SDS011;5649;52.422;13.754;2023-02-17T00:51:58;20.77;;;10.37;;
11185;SDS011;5649;52.422;13.754;2023-02-17T00:54:24;27.37;;;12.57;;
11185;SDS011;5649;52.422;13.754;2023-02-17T00:56:50;28.27;;;11.80;;
11185;SDS011;5649;52.422;13.754;2023-02-17T00:59:17;21.83;;;12.40;;
11185;SDS011;5649;52.422;13.754;2023-02-17T01:01:43;21.37;;;10.50;;
11185;SDS011;5649;52.422;13.754;2023-02-17T01:04:09;28.50;;;12.20;;
11185;SDS011;5649;52.422;13.754;2023-02-17T01:06:35;25.90;;;11.03;;
11185;SDS011;5649;52.422;13.754;2023-02-17T01:09:02;22.90;;;10.90;;
11185;SDS011;5649;52.422;13.754;2023-02-17T01:11:29;20.57;;;12.00;;
11185;SDS011;5649;52.422;13.754;2023-02-17T01:13:56;23.50;;;12.17;;
11185;SDS011;5649;52.422;13.754;2023-02-17T01:16:26;25.17;;;12.57;;
11185;SDS011;5649;52.422;13.754;2023-02-17T01:18:52;27.20;;;11.67;;
11185;SDS011;5649;52.422;13.754;2023-02-17T01:21:19;21.60;;;11.60;;
11185;SDS011;5649;52.422;13.754;2023-02-17T01:23:48;22.33;;;10.20;;
11185;SDS011;5649;52.422;13.754;2023-02-17T01:26:15;27.70;;;12.33;;
11185;SDS011;5649;52.422;13.754;2023-02-17T01:28:42;23.40;;;11.50;;
11185;SDS011;5649;52.422;13.754;2023-02-17T01:31:08;22.80;;;12.87;;
11185;SDS011;5649;52.422;13.754;2023-02-17T01:33:35;21.00;;;12.13;;
11185;SDS011;5649;52.422;13.754;2023-02-17T01:36:02;22.80;;;11.57;;
11185;SDS011;5649;52.422;13.754;2023-02-17T01:38:29;23.23;;;11.97;;
11185;SDS011;5649;52.422;13.754;2023-02-17T01:40:55;22.77;;;12.80;;
11185;SDS011;5649;52.422;13.754;2023-02-17T01:43:21;26.47;;;12.93;;
11185;SDS011;5649;52.422;13.754;2023-02-17T01:45:49;29.93;;;12.30;;
11185;SDS011;5649;52.422;13.754;2023-02-17T01:48:16;28.57;;;12.80;;
11185;SDS011;5649;52.422;13.754;2023-02-17T01:50:45;31.57;;;13.50;;
11185;SDS011;5649;52.422;13.754;2023-02-17T01:53:12;23.77;;;12.20;;
11185;SDS011;5649;52.422;13.754;2023-02-17T01:55:39;24.87;;;13.20;;
11185;SDS011;5649;52.422;13.754;2023-02-17T01:58:06;25.03;;;12.57;;
11185;SDS011;5649;52.422;13.754;2023-02-17T02:00:33;22.40;;;12.53;;
11185;SDS011;5649;52.422;13.754;2023-02-17T02:03:00;20.37;;;11.80;;
11185;SDS011;5649;52.422;13.754;2023-02-17T02:05:26;24.20;;;11.23;;
11185;SDS011;5649;52.422;13.754;2023-02-17T02:07:53;22.77;;;11.13;;
11185;SDS011;5649;52.422;13.754;2023-02-17T02:10:19;25.73;;;11.43;;
11185;SDS011;5649;52.422;13.754;2023-02-17T02:12:45;29.33;;;12.67;;
11185;SDS011;5649;52.422;13.754;2023-02-17T02:15:19;18.73;;;11.20;;
11185;SDS011;5649;52.422;13.754;2023-02-17T02:41:28;21.90;;;10.90;;
11185;SDS011;5649;52.422;13.754;2023-02-17T02:43:56;20.27;;;10.90;;
11185;SDS011;5649;52.422;13.754;2023-02-17T02:46:22;24.30;;;11.13;;
11185;SDS011;5649;52.422;13.754;2023-02-17T02:48:48;27.60;;;11.80;;
11185;SDS011;5649;52.422;13.754;2023-02-17T03:07:20;19.47;;;12.30;;
11185;SDS011;5649;52.422;13.754;2023-02-17T03:09:49;26.23;;;12.70;;
11185;SDS011;5649;52.422;13.754;2023-02-17T03:12:16;25.90;;;12.40;;
11185;SDS011;5649;52.422;13.754;2023-02-17T03:14:42;24.63;;;13.20;;
11185;SDS011;5649;52.422;13.754;2023-02-17T03:17:08;27.40;;;12.87;;
11185;SDS011;5649;52.422;13.754;2023-02-17T03:19:34;18.63;;;11.30;;
11185;SDS011;5649;52.422;13.754;2023-02-17T03:22:04;20.37;;;12.30;;
11185;SDS011;5649;52.422;13.754;2023-02-17T03:24:32;27.83;;;14.27;;
11185;SDS011;5649;52.422;13.754;2023-02-17T03:26:58;25.90;;;11.73;;
11185;SDS011;5649;52.422;13.754;2023-02-17T03:29:24;23.77;;;12.67;;
11185;SDS011;5649;52.422;13.754;2023-02-17T03:31:50;21.53;;;11.83;;
11185;SDS011;5649;52.422;13.754;2023-02-17T03:34:16;37.03;;;12.20;;
11185;SDS011;5649;52.422;13.754;2023-02-17T03:36:42;28.10;;;11.77;;
11185;SDS011;5649;52.422;13.754;2023-02-17T03:39:08;27.03;;;12.37;;
11185;SDS011;5649;52.422;13.754;2023-02-17T03:41:34;22.40;;;12.33;;
11185;SDS011;5649;52.422;13.754;2023-02-17T03:44:00;28.17;;;13.13;;
11185;SDS011;5649;52.422;13.754;2023-02-17T03:46:26;33.37;;;13.47;;
11185;SDS011;5649;52.422;13.754;2023-02-17T03:48:52;32.17;;;13.10;;
11185;SDS011;5649;52.422;13.754;2023-02-17T03:51:19;31.63;;;12.50;;
11185;SDS011;5649;52.422;13.754;2023-02-17T03:53:46;23.80;;;12.23;;
11185;SDS011;5649;52.422;13.754;2023-02-17T03:56:12;26.57;;;11.67;;
11185;SDS011;5649;52.422;13.754;2023-02-17T03:58:39;20.97;;;11.30;;
11185;SDS011;5649;52.422;13.754;2023-02-17T04:01:05;18.50;;;10.70;;
11185;SDS011;5649;52.422;13.754;2023-02-17T04:03:32;23.03;;;13.00;;
11185;SDS011;5649;52.422;13.754;2023-02-17T04:05:58;22.63;;;12.43;;
11185;SDS011;5649;52.422;13.754;2023-02-17T04:08:24;26.33;;;12.07;;
11185;SDS011;5649;52.422;13.754;2023-02-17T04:10:54;23.13;;;12.87;;
11185;SDS011;5649;52.422;13.754;2023-02-17T04:13:20;26.57;;;13.20;;
11185;SDS011;5649;52.422;13.754;2023-02-17T04:15:46;27.77;;;12.00;;
11185;SDS011;5649;52.422;13.754;2023-02-17T04:18:12;29.17;;;13.13;;
11185;SDS011;5649;52.422;13.754;2023-02-17T04:20:39;26.80;;;14.07;;
11185;SDS011;5649;52.422;13.754;2023-02-17T04:23:05;32.20;;;12.10;;
11185;SDS011;5649;52.422;13.754;2023-02-17T04:25:34;24.10;;;12.40;;
11185;SDS011;5649;52.422;13.754;2023-02-17T04:28:01;25.00;;;12.83;;
11185;SDS011;5649;52.422;13.754;2023-02-17T04:30:27;31.37;;;12.57;;
11185;SDS011;5649;52.422;13.754;2023-02-17T04:32:53;36.90;;;13.33;;
11185;SDS011;5649;52.422;13.754;2023-02-17T04:35:19;24.87;;;12.27;;
11185;SDS011;5649;52.422;13.754;2023-02-17T04:37:45;33.40;;;13.40;;
11185;SDS011;5649;52.422;13.754;2023-02-17T04:40:11;26.70;;;13.23;;
11185;SDS011;5649;52.422;13.754;2023-02-17T04:42:37;26.33;;;12.77;;
11185;SDS011;5649;52.422;13.754;2023-02-17T04:45:04;22.03;;;12.07;;
11185;SDS011;5649;52.422;13.754;2023-02-17T04:47:30;20.87;;;11.87;;
11185;SDS011;5649;52.422;13.754;2023-02-17T04:49:56;27.43;;;12.33;;
11185;SDS011;5649;52.422;13.754;2023-02-17T04:52:22;24.03;;;12.80;;
11185;SDS011;5649;52.422;13.754;2023-02-17T04:54:48;23.37;;;12.60;;
11185;SDS011;5649;52.422;13.754;2023-02-17T04:57:15;23.93;;;12.87;;
11185;SDS011;5649;52.422;13.754;2023-02-17T04:59:41;27.70;;;11.60;;
11185;SDS011;5649;52.422;13.754;2023-02-17T05:02:07;19.07;;;10.80;;
11185;SDS011;5649;52.422;13.754;2023-02-17T05:04:33;20.10;;;10.37;;
11185;SDS011;5649;52.422;13.754;2023-02-17T05:06:59;20.93;;;11.00;;
11185;SDS011;5649;52.422;13.754;2023-02-17T05:09:25;50.67;;;22.27;;
11185;SDS011;5649;52.422;13.754;2023-02-17T05:11:51;35.87;;;19.07;;
11185;SDS011;5649;52.422;13.754;2023-02-17T05:14:17;76.87;;;39.10;;
11185;SDS011;5649;52.422;13.754;2023-02-17T05:16:43;49.17;;;29.97;;
11185;SDS011;5649;52.422;13.754;2023-02-17T05:19:09;36.60;;;17.47;;
11185;SDS011;5649;52.422;13.754;2023-02-17T05:21:35;23.37;;;13.57;;
11185;SDS011;5649;52.422;13.754;2023-02-17T05:24:01;24.67;;;12.90;;
11185;SDS011;5649;52.422;13.754;2023-02-17T05:26:27;18.93;;;10.50;;
11185;SDS011;5649;52.422;13.754;2023-02-17T05:28:53;19.23;;;10.80;;
11185;SDS011;5649;52.422;13.754;2023-02-17T05:31:19;23.30;;;12.37;;
11185;SDS011;5649;52.422;13.754;2023-02-17T05:33:45;24.37;;;12.53;;
11185;SDS011;5649;52.422;13.754;2023-02-17T05:36:11;31.13;;;14.10;;
11185;SDS011;5649;52.422;13.754;2023-02-17T05:38:38;23.93;;;12.73;;
11185;SDS011;5649;52.422;13.754;2023-02-17T05:41:04;24.87;;;15.60;;
11185;SDS011;5649;52.422;13.754;2023-02-17T05:43:30;22.60;;;12.03;;
11185;SDS011;5649;52.422;13.754;2023-02-17T05:46:02;25.20;;;13.13;;
11185;SDS011;5649;52.422;13.754;2023-02-17T05:48:28;24.50;;;13.80;;
11185;SDS011;5649;52.422;13.754;2023-02-17T05:50:54;30.03;;;13.33;;
11185;SDS011;5649;52.422;13.754;2023-02-17T05:53:20;18.43;;;11.10;;
11185;SDS011;5649;52.422;13.754;2023-02-17T05:55:46;19.63;;;10.63;;
11185;SDS011;5649;52.422;13.754;2023-02-17T05:58:13;17.37;;;10.37;;
11185;SDS011;5649;52.422;13.754;2023-02-17T06:00:39;27.57;;;12.50;;
11185;SDS011;5649;52.422;13.754;2023-02-17T06:03:05;25.90;;;12.90;;
11185;SDS011;5649;52.422;13.754;2023-02-17T06:05:31;29.03;;;13.37;;
11185;SDS011;5649;52.422;13.754;2023-02-17T06:07:57;21.20;;;12.60;;
11185;SDS011;5649;52.422;13.754;2023-02-17T06:10:23;23.90;;;13.40;;
11185;SDS011;5649;52.422;13.754;2023-02-17T06:12:49;27.03;;;13.97;;
11185;SDS011;5649;52.422;13.754;2023-02-17T06:15:15;23.83;;;11.20;;
11185;SDS011;5649;52.422;13.754;2023-02-17T06:17:41;27.13;;;12.77;;
11185;SDS011;5649;52.422;13.754;2023-02-17T06:20:08;27.10;;;14.17;;
11185;SDS011;5649;52.422;13.754;2023-02-17T06:22:35;28.67;;;12.70;;
11185;SDS011;5649;52.422;13.754;2023-02-17T06:25:01;18.80;;;11.17;;
11185;SDS011;5649;52.422;13.754;2023-02-17T06:27:27;30.03;;;12.30;;
11185;SDS011;5649;52.422;13.754;2023-02-17T06:29:53;22.60;;;12.00;;
11185;SDS011;5649;52.422;13.754;2023-02-17T06:32:19;28.57;;;13.40;;
11185;SDS011;5649;52.422;13.754;2023-02-17T06:34:45;47.43;;;19.30;;
11185;SDS011;5649;52.422;13.754;2023-02-17T06:37:11;26.33;;;13.70;;
11185;SDS011;5649;52.422;13.754;2023-02-17T06:39:37;25.60;;;12.57;;
11185;SDS011;5649;52.422;13.754;2023-02-17T06:42:03;31.80;;;13.67;;
11185;SDS011;5649;52.422;13.754;2023-02-17T06:44:29;23.33;;;12.40;;
11185;SDS011;5649;52.422;13.754;2023-02-17T06:46:55;27.10;;;12.63;;
11185;SDS011;5649;52.422;13.754;2023-02-17T06:49:21;25.80;;;11.70;;
11185;SDS011;5649;52.422;13.754;2023-02-17T06:51:47;20.60;;;11.07;;
11185;SDS011;5649;52.422;13.754;2023-02-17T06:54:13;26.63;;;10.63;;
11185;SDS011;5649;52.422;13.754;2023-02-17T06:56:39;20.27;;;10.63;;
11185;SDS011;5649;52.422;13.754;2023-02-17T06:59:05;16.47;;;9.87;;
11185;SDS011;5649;52.422;13.754;2023-02-17T07:01:31;21.87;;;11.80;;
11185;SDS011;5649;52.422;13.754;2023-02-17T07:03:57;18.20;;;10.80;;
11185;SDS011;5649;52.422;13.754;2023-02-17T07:06:24;20.70;;;11.30;;
11185;SDS011;5649;52.422;13.754;2023-02-17T07:08:50;23.93;;;12.33;;
11185;SDS011;5649;52.422;13.754;2023-02-17T07:11:16;19.53;;;11.00;;
11185;SDS011;5649;52.422;13.754;2023-02-17T07:13:43;20.10;;;10.90;;
11185;SDS011;5649;52.422;13.754;2023-02-17T07:16:10;25.80;;;11.47;;
11185;SDS011;5649;52.422;13.754;2023-02-17T07:18:36;24.87;;;11.43;;
11185;SDS011;5649;52.422;13.754;2023-02-17T07:21:05;16.40;;;8.63;;
11185;SDS011;5649;52.422;13.754;2023-02-17T07:23:33;22.97;;;10.97;;
11185;SDS011;5649;52.422;13.754;2023-02-17T07:26:05;14.70;;;8.40;;
11185;SDS011;5649;52.422;13.754;2023-02-17T07:28:33;19.90;;;10.63;;
11185;SDS011;5649;52.422;13.754;2023-02-17T07:33:31;18.83;;;9.70;;
11185;SDS011;5649;52.422;13.754;2023-02-17T07:35:58;17.07;;;10.37;;
11185;SDS011;5649;52.422;13.754;2023-02-17T07:38:24;16.70;;;10.60;;
11185;SDS011;5649;52.422;13.754;2023-02-17T07:40:50;19.30;;;11.60;;
11185;SDS011;5649;52.422;13.754;2023-02-17T07:43:16;17.73;;;10.27;;
11185;SDS011;5649;52.422;13.754;2023-02-17T07:45:42;16.30;;;9.97;;
11185;SDS011;5649;52.422;13.754;2023-02-17T07:48:08;23.40;;;9.50;;
11185;SDS011;5649;52.422;13.754;2023-02-17T07:50:34;16.97;;;8.70;;
11185;SDS011;5649;52.422;13.754;2023-02-17T07:53:00;20.10;;;8.97;;
11185;SDS011;5649;52.422;13.754;2023-02-17T07:55:26;14.80;;;8.70;;
11185;SDS011;5649;52.422;13.754;2023-02-17T07:57:52;15.50;;;9.03;;
11185;SDS011;5649;52.422;13.754;2023-02-17T08:00:18;18.57;;;8.80;;
11185;SDS011;5649;52.422;13.754;2023-02-17T08:02:44;23.53;;;12.33;;
11185;SDS011;5649;52.422;13.754;2023-02-17T08:05:11;20.73;;;12.97;;
11185;SDS011;5649;52.422;13.754;2023-02-17T08:07:37;20.60;;;11.77;;
11185;SDS011;5649;52.422;13.754;2023-02-17T08:10:03;18.37;;;8.50;;
11185;SDS011;5649;52.422;13.754;2023-02-17T08:12:48;20.03;;;8.17;;
11185;SDS011;5649;52.422;13.754;2023-02-17T08:15:32;16.10;;;8.70;;
11185;SDS011;5649;52.422;13.754;2023-02-17T08:17:58;14.63;;;8.07;;
11185;SDS011;5649;52.422;13.754;2023-02-17T08:20:25;14.50;;;7.90;;
11185;SDS011;5649;52.422;13.754;2023-02-17T08:22:51;14.33;;;8.00;;
11185;SDS011;5649;52.422;13.754;2023-02-17T08:25:17;30.03;;;8.97;;
11185;SDS011;5649;52.422;13.754;2023-02-17T08:27:43;18.63;;;9.50;;
11185;SDS011;5649;52.422;13.754;2023-02-17T08:30:10;15.70;;;8.63;;
11185;SDS011;5649;52.422;13.754;2023-02-17T08:32:36;17.30;;;9.30;;
11185;SDS011;5649;52.422;13.754;2023-02-17T08:35:02;11.20;;;7.60;;
11185;SDS011;5649;52.422;13.754;2023-02-17T08:37:29;13.60;;;8.70;;
11185;SDS011;5649;52.422;13.754;2023-02-17T08:39:56;16.37;;;6.73;;
11185;SDS011;5649;52.422;13.754;2023-02-17T08:42:24;12.27;;;8.03;;
11185;SDS011;5649;52.422;13.754;2023-02-17T08:44:50;12.37;;;7.90;;
11185;SDS011;5649;52.422;13.754;2023-02-17T08:47:16;15.83;;;7.57;;
11185;SDS011;5649;52.422;13.754;2023-02-17T08:49:42;17.07;;;8.57;;
11185;SDS011;5649;52.422;13.754;2023-02-17T08:52:08;22.37;;;8.50;;
11185;SDS011;5649;52.422;13.754;2023-02-17T08:54:34;15.60;;;8.53;;
11185;SDS011;5649;52.422;13.754;2023-02-17T08:57:01;15.00;;;7.70;;
11185;SDS011;5649;52.422;13.754;2023-02-17T08:59:27;10.43;;;7.20;;
11185;SDS011;5649;52.422;13.754;2023-02-17T09:01:53;16.70;;;8.03;;
11185;SDS011;5649;52.422;13.754;2023-02-17T09:04:19;14.40;;;7.60;;
11185;SDS011;5649;52.422;13.754;2023-02-17T09:06:46;10.53;;;7.20;;
11185;SDS011;5649;52.422;13.754;2023-02-17T09:09:14;11.83;;;6.70;;
11185;SDS011;5649;52.422;13.754;2023-02-17T09:11:40;16.93;;;7.93;;
11185;SDS011;5649;52.422;13.754;2023-02-17T09:14:06;14.07;;;7.10;;
11185;SDS011;5649;52.422;13.754;2023-02-17T09:16:32;16.77;;;7.97;;
11185;SDS011;5649;52.422;13.754;2023-02-17T09:18:58;9.17;;;6.00;;
11185;SDS011;5649;52.422;13.754;2023-02-17T09:21:24;12.90;;;7.30;;
11185;SDS011;5649;52.422;13.754;2023-02-17T09:23:51;12.07;;;6.77;;
11185;SDS011;5649;52.422;13.754;2023-02-17T09:26:17;14.60;;;7.97;;
11185;SDS011;5649;52.422;13.754;2023-02-17T09:28:44;12.43;;;6.23;;
11185;SDS011;5649;52.422;13.754;2023-02-17T09:31:12;15.00;;;8.50;;
11185;SDS011;5649;52.422;13.754;2023-02-17T09:33:42;15.13;;;7.90;;
11185;SDS011;5649;52.422;13.754;2023-02-17T09:36:09;13.23;;;7.60;;
11185;SDS011;5649;52.422;13.754;2023-02-17T09:38:38;16.40;;;6.90;;
11185;SDS011;5649;52.422;13.754;2023-02-17T09:43:44;8.23;;;5.30;;
11185;SDS011;5649;52.422;13.754;2023-02-17T09:46:12;10.30;;;6.43;;
11185;SDS011;5649;52.422;13.754;2023-02-17T09:48:39;16.83;;;7.80;;
11185;SDS011;5649;52.422;13.754;2023-02-17T09:51:07;13.10;;;6.83;;
11185;SDS011;5649;52.422;13.754;2023-02-17T09:56:05;8.57;;;5.87;;
11185;SDS011;5649;52.422;13.754;2023-02-17T10:01:01;8.77;;;6.10;;
11185;SDS011;5649;52.422;13.754;2023-02-17T10:03:40;10.53;;;6.60;;
11185;SDS011;5649;52.422;13.754;2023-02-17T10:13:47;8.93;;;5.87;;
11185;SDS011;5649;52.422;13.754;2023-02-17T10:16:16;11.10;;;6.00;;
11185;SDS011;5649;52.422;13.754;2023-02-17T10:18:49;6.70;;;4.63;;
11185;SDS011;5649;52.422;13.754;2023-02-17T10:21:17;10.53;;;6.40;;
11185;SDS011;5649;52.422;13.754;2023-02-17T10:23:46;9.50;;;5.83;;
11185;SDS011;5649;52.422;13.754;2023-02-17T10:26:22;10.23;;;5.57;;
11185;SDS011;5649;52.422;13.754;2023-02-17T10:31:19;5.90;;;5.23;;
11185;SDS011;5649;52.422;13.754;2023-02-17T10:36:24;10.60;;;5.53;;
11185;SDS011;5649;52.422;13.754;2023-02-17T10:38:53;8.93;;;5.23;;
11185;SDS011;5649;52.422;13.754;2023-02-17T10:41:23;10.60;;;6.40;;
11185;SDS011;5649;52.422;13.754;2023-02-17T10:43:51;10.10;;;6.20;;
11185;SDS011;5649;52.422;13.754;2023-02-17T10:46:18;9.47;;;6.43;;
11185;SDS011;5649;52.422;13.754;2023-02-17T10:48:49;10.23;;;6.27;;
11185;SDS011;5649;52.422;13.754;2023-02-17T10:51:17;17.00;;;6.73;;
11185;SDS011;5649;52.422;13.754;2023-02-17T10:53:46;11.77;;;5.50;;
11185;SDS011;5649;52.422;13.754;2023-02-17T10:56:14;8.33;;;5.77;;
11185;SDS011;5649;52.422;13.754;2023-02-17T11:01:08;9.23;;;5.80;;
11185;SDS011;5649;52.422;13.754;2023-02-17T11:03:35;8.37;;;5.47;;
11185;SDS011;5649;52.422;13.754;2023-02-17T11:06:05;9.50;;;5.60;;
11185;SDS011;5649;52.422;13.754;2023-02-17T11:08:38;7.97;;;6.10;;
11185;SDS011;5649;52.422;13.754;2023-02-17T11:11:15;9.73;;;5.33;;
11185;SDS011;5649;52.422;13.754;2023-02-17T11:13:43;11.50;;;6.07;;
11185;SDS011;5649;52.422;13.754;2023-02-17T11:16:25;7.37;;;4.90;;
11185;SDS011;5649;52.422;13.754;2023-02-17T11:18:52;7.40;;;5.27;;
11185;SDS011;5649;52.422;13.754;2023-02-17T11:21:18;7.37;;;5.10;;
11185;SDS011;5649;52.422;13.754;2023-02-17T11:23:51;8.10;;;5.33;;
11185;SDS011;5649;52.422;13.754;2023-02-17T11:26:23;8.20;;;5.90;;
11185;SDS011;5649;52.422;13.754;2023-02-17T11:28:49;11.50;;;5.67;;
11185;SDS011;5649;52.422;13.754;2023-02-17T11:33:48;10.10;;;6.27;;
11185;SDS011;5649;52.422;13.754;2023-02-17T11:36:21;11.80;;;6.40;;
11185;SDS011;5649;52.422;13.754;2023-02-17T11:38:48;8.93;;;5.53;;
11185;SDS011;5649;52.422;13.754;2023-02-17T11:41:15;7.10;;;4.87;;
11185;SDS011;5649;52.422;13.754;2023-02-17T11:43:51;11.77;;;5.20;;
11185;SDS011;5649;52.422;13.754;2023-02-17T11:51:21;8.17;;;5.40;;
11185;SDS011;5649;52.422;13.754;2023-02-17T11:54:02;6.70;;;4.37;;
11185;SDS011;5649;52.422;13.754;2023-02-17T11:56:34;7.70;;;4.93;;
11185;SDS011;5649;52.422;13.754;2023-02-17T11:59:07;9.60;;;4.80;;
11185;SDS011;5649;52.422;13.754;2023-02-17T12:12:20;8.80;;;5.30;;
11185;SDS011;5649;52.422;13.754;2023-02-17T12:15:05;5.70;;;3.90;;
11185;SDS011;5649;52.422;13.754;2023-02-17T12:22:41;9.70;;;4.07;;
11185;SDS011;5649;52.422;13.754;2023-02-17T12:35:22;11.03;;;5.90;;
11185;SDS011;5649;52.422;13.754;2023-02-17T12:40:38;15.23;;;3.93;;
11185;SDS011;5649;52.422;13.754;2023-02-17T12:43:21;5.20;;;3.90;;
11185;SDS011;5649;52.422;13.754;2023-02-17T12:45:48;6.10;;;4.00;;
11185;SDS011;5649;52.422;13.754;2023-02-17T12:50:53;4.50;;;3.03;;
11185;SDS011;5649;52.422;13.754;2023-02-17T12:53:24;5.40;;;4.07;;
11185;SDS011;5649;52.422;13.754;2023-02-17T12:55:56;5.80;;;3.70;;
11185;SDS011;5649;52.422;13.754;2023-02-17T12:58:24;4.37;;;2.87;;
11185;SDS011;5649;52.422;13.754;2023-02-17T13:00:52;4.97;;;3.53;;
11185;SDS011;5649;52.422;13.754;2023-02-17T13:03:19;6.60;;;2.93;;
11185;SDS011;5649;52.422;13.754;2023-02-17T13:10:40;4.27;;;2.47;;
11185;SDS011;5649;52.422;13.754;2023-02-17T13:13:27;3.87;;;2.63;;
11185;SDS011;5649;52.422;13.754;2023-02-17T13:16:04;3.40;;;3.10;;
11185;SDS011;5649;52.422;13.754;2023-02-17T13:18:31;3.40;;;2.60;;
11185;SDS011;5649;52.422;13.754;2023-02-17T13:23:57;8.73;;;2.70;;
11185;SDS011;5649;52.422;13.754;2023-02-17T13:28:46;4.07;;;2.40;;
11185;SDS011;5649;52.422;13.754;2023-02-17T13:33:39;2.37;;;2.17;;
11185;SDS011;5649;52.422;13.754;2023-02-17T13:36:39;2.70;;;2.30;;
11185;SDS011;5649;52.422;13.754;2023-02-17T13:39:00;3.60;;;2.30;;
11185;SDS011;5649;52.422;13.754;2023-02-17T13:41:46;5.40;;;3.03;;
11185;SDS011;5649;52.422;13.754;2023-02-17T13:46:59;7.83;;;2.33;;
11185;SDS011;5649;52.422;13.754;2023-02-17T13:49:26;4.93;;;2.03;;
11185;SDS011;5649;52.422;13.754;2023-02-17T13:51:52;9.40;;;2.33;;
11185;SDS011;5649;52.422;13.754;2023-02-17T13:54:20;3.47;;;2.80;;
11185;SDS011;5649;52.422;13.754;2023-02-17T13:56:51;2.33;;;1.80;;
11185;SDS011;5649;52.422;13.754;2023-02-17T13:59:23;1.97;;;1.80;;
11185;SDS011;5649;52.422;13.754;2023-02-17T14:01:49;5.93;;;2.23;;
11185;SDS011;5649;52.422;13.754;2023-02-17T14:04:19;2.47;;;2.27;;
11185;SDS011;5649;52.422;13.754;2023-02-17T14:06:46;2.80;;;1.97;;
11185;SDS011;5649;52.422;13.754;2023-02-17T14:09:18;4.80;;;2.00;;
11185;SDS011;5649;52.422;13.754;2023-02-17T14:11:46;3.20;;;2.43;;
11185;SDS011;5649;52.422;13.754;2023-02-17T14:14:12;4.60;;;2.90;;
11185;SDS011;5649;52.422;13.754;2023-02-17T14:16:39;4.67;;;3.20;;
11185;SDS011;5649;52.422;13.754;2023-02-17T14:21:35;2.90;;;2.23;;
11185;SDS011;5649;52.422;13.754;2023-02-17T14:24:01;2.27;;;1.63;;
11185;SDS011;5649;52.422;13.754;2023-02-17T14:26:45;2.93;;;2.20;;
11185;SDS011;5649;52.422;13.754;2023-02-17T14:29:12;8.50;;;1.50;;
11185;SDS011;5649;52.422;13.754;2023-02-17T14:31:39;2.23;;;1.83;;
11185;SDS011;5649;52.422;13.754;2023-02-17T14:34:06;3.03;;;2.03;;
11185;SDS011;5649;52.422;13.754;2023-02-17T14:36:34;2.17;;;1.93;;
11185;SDS011;5649;52.422;13.754;2023-02-17T14:39:02;3.73;;;2.00;;
11185;SDS011;5649;52.422;13.754;2023-02-17T14:41:28;1.83;;;1.73;;
11185;SDS011;5649;52.422;13.754;2023-02-17T14:43:54;2.70;;;2.00;;
11185;SDS011;5649;52.422;13.754;2023-02-17T14:46:20;4.67;;;1.90;;
11185;SDS011;5649;52.422;13.754;2023-02-17T14:48:47;2.23;;;2.03;;
11185;SDS011;5649;52.422;13.754;2023-02-17T14:51:14;2.67;;;1.77;;
11185;SDS011;5649;52.422;13.754;2023-02-17T14:53:40;19.27;;;1.50;;
11185;SDS011;5649;52.422;13.754;2023-02-17T14:56:08;3.40;;;2.20;;
11185;SDS011;5649;52.422;13.754;2023-02-17T14:58:37;4.57;;;1.93;;
11185;SDS011;5649;52.422;13.754;2023-02-17T15:01:03;2.30;;;1.87;;
11185;SDS011;5649;52.422;13.754;2023-02-17T15:03:29;3.50;;;1.97;;
11185;SDS011;5649;52.422;13.754;2023-02-17T15:05:56;14.40;;;2.40;;
11185;SDS011;5649;52.422;13.754;2023-02-17T15:08:29;1.73;;;1.40;;
11185;SDS011;5649;52.422;13.754;2023-02-17T15:10:56;1.50;;;1.40;;
11185;SDS011;5649;52.422;13.754;2023-02-17T15:13:22;2.60;;;2.03;;
11185;SDS011;5649;52.422;13.754;2023-02-17T15:15:48;3.80;;;1.97;;
11185;SDS011;5649;52.422;13.754;2023-02-17T15:18:15;2.00;;;1.80;;
11185;SDS011;5649;52.422;13.754;2023-02-17T15:20:43;2.10;;;2.00;;
11185;SDS011;5649;52.422;13.754;2023-02-17T15:23:13;2.07;;;1.83;;
11185;SDS011;5649;52.422;13.754;2023-02-17T15:25:39;6.93;;;2.80;;
11185;SDS011;5649;52.422;13.754;2023-02-17T15:28:05;2.10;;;1.90;;
11185;SDS011;5649;52.422;13.754;2023-02-17T15:30:32;4.10;;;2.30;;
11185;SDS011;5649;52.422;13.754;2023-02-17T15:32:58;10.03;;;2.83;;
11185;SDS011;5649;52.422;13.754;2023-02-17T15:35:26;4.23;;;1.73;;
11185;SDS011;5649;52.422;13.754;2023-02-17T15:37:52;2.50;;;2.00;;
11185;SDS011;5649;52.422;13.754;2023-02-17T15:40:21;4.20;;;2.37;;
11185;SDS011;5649;52.422;13.754;2023-02-17T15:42:49;3.07;;;2.10;;
11185;SDS011;5649;52.422;13.754;2023-02-17T15:45:16;2.40;;;2.20;;
11185;SDS011;5649;52.422;13.754;2023-02-17T15:47:43;2.60;;;2.40;;
11185;SDS011;5649;52.422;13.754;2023-02-17T15:50:17;9.00;;;2.40;;
11185;SDS011;5649;52.422;13.754;2023-02-17T15:52:50;4.83;;;3.00;;
11185;SDS011;5649;52.422;13.754;2023-02-17T15:55:17;7.70;;;2.37;;
11185;SDS011;5649;52.422;13.754;2023-02-17T15:57:50;6.13;;;2.77;;
11185;SDS011;5649;52.422;13.754;2023-02-17T16:02:44;4.10;;;2.93;;
11185;SDS011;5649;52.422;13.754;2023-02-17T16:05:11;3.33;;;3.03;;
11185;SDS011;5649;52.422;13.754;2023-02-17T16:07:37;7.23;;;2.90;;
11185;SDS011;5649;52.422;13.754;2023-02-17T16:10:03;5.43;;;3.40;;
11185;SDS011;5649;52.422;13.754;2023-02-17T16:12:30;7.13;;;3.10;;
11185;SDS011;5649;52.422;13.754;2023-02-17T16:14:56;4.53;;;3.33;;
11185;SDS011;5649;52.422;13.754;2023-02-17T16:17:23;2.77;;;2.50;;
11185;SDS011;5649;52.422;13.754;2023-02-17T16:19:49;3.63;;;2.87;;
11185;SDS011;5649;52.422;13.754;2023-02-17T16:22:15;6.70;;;2.93;;
11185;SDS011;5649;52.422;13.754;2023-02-17T16:24:41;3.03;;;2.60;;
11185;SDS011;5649;52.422;13.754;2023-02-17T16:27:09;9.13;;;3.53;;
11185;SDS011;5649;52.422;13.754;2023-02-17T16:29:36;7.83;;;3.27;;
11185;SDS011;5649;52.422;13.754;2023-02-17T16:32:02;18.53;;;3.60;;
11185;SDS011;5649;52.422;13.754;2023-02-17T16:34:28;5.40;;;3.40;;
11185;SDS011;5649;52.422;13.754;2023-02-17T16:36:59;3.07;;;2.60;;
11185;SDS011;5649;52.422;13.754;2023-02-17T16:39:26;4.17;;;3.03;;